sensor_id;sensor_type;location;lat;lon;timestamp;P1;P2;P0
78512;PMS5003;67809;55.034;73.462;2023-02-28T00:01:32;27.00;22.00;13.25
78512;PMS5003;67809;55.034;73.462;2023-02-28T00:03:58;22.50;18.00;12.00
78512;PMS5003;67809;55.034;73.462;2023-02-28T00:06:24;27.00;19.75;12.00
78512;PMS5003;67809;55.034;73.462;2023-02-28T00:08:50;31.00;25.25;16.25
78512;PMS5003;67809;55.034;73.462;2023-02-28T00:11:16;37.00;26.00;17.00
78512;PMS5003;67809;55.034;73.462;2023-02-28T00:13:52;19.50;15.00;8.75
78512;PMS5003;67809;55.034;73.462;2023-02-28T00:16:19;26.00;19.00;11.00
78512;PMS5003;67809;55.034;73.462;2023-02-28T00:18:46;22.25;19.00;12.00
78512;PMS5003;67809;55.034;73.462;2023-02-28T00:21:13;29.33;22.00;15.00
78512;PMS5003;67809;55.034;73.462;2023-02-28T00:23:39;27.00;21.00;13.00
78512;PMS5003;67809;55.034;73.462;2023-02-28T00:26:10;25.00;20.75;13.50
78512;PMS5003;67809;55.034;73.462;2023-02-28T00:28:44;30.25;22.75;14.00
78512;PMS5003;67809;55.034;73.462;2023-02-28T00:31:20;24.33;20.33;14.00
78512;PMS5003;67809;55.034;73.462;2023-02-28T00:33:47;29.25;23.00;14.00
78512;PMS5003;67809;55.034;73.462;2023-02-28T00:36:14;30.00;23.00;14.00
78512;PMS5003;67809;55.034;73.462;2023-02-28T00:38:40;29.75;23.50;15.00
78512;PMS5003;67809;55.034;73.462;2023-02-28T00:41:16;27.25;21.75;12.00
78512;PMS5003;67809;55.034;73.462;2023-02-28T00:43:47;26.25;20.75;12.75
78512;PMS5003;67809;55.034;73.462;2023-02-28T00:46:13;30.25;23.00;14.00
78512;PMS5003;67809;55.034;73.462;2023-02-28T00:48:39;32.00;24.00;15.25
78512;PMS5003;67809;55.034;73.462;2023-02-28T00:51:05;28.25;22.50;14.25
78512;PMS5003;67809;55.034;73.462;2023-02-28T00:53:31;33.50;25.00;14.00
78512;PMS5003;67809;55.034;73.462;2023-02-28T00:56:06;33.75;26.00;16.00
78512;PMS5003;67809;55.034;73.462;2023-02-28T00:58:42;29.25;23.50;13.75
78512;PMS5003;67809;55.034;73.462;2023-02-28T01:01:08;25.00;20.00;12.33
78512;PMS5003;67809;55.034;73.462;2023-02-28T01:03:44;26.75;20.00;12.00
78512;PMS5003;67809;55.034;73.462;2023-02-28T01:06:10;36.00;25.00;16.00
78512;PMS5003;67809;55.034;73.462;2023-02-28T01:08:48;31.00;24.00;14.00
78512;PMS5003;67809;55.034;73.462;2023-02-28T01:11:15;28.33;21.67;12.00
78512;PMS5003;67809;55.034;73.462;2023-02-28T01:13:42;25.75;21.00;12.00
78512;PMS5003;67809;55.034;73.462;2023-02-28T01:16:08;27.50;22.00;13.00
78512;PMS5003;67809;55.034;73.462;2023-02-28T01:18:44;23.50;19.00;11.00
78512;PMS5003;67809;55.034;73.462;2023-02-28T01:21:11;26.00;20.00;14.00
78512;PMS5003;67809;55.034;73.462;2023-02-28T01:23:38;28.50;22.75;14.00
78512;PMS5003;67809;55.034;73.462;2023-02-28T01:26:21;28.50;22.00;13.25
78512;PMS5003;67809;55.034;73.462;2023-02-28T01:28:49;32.00;24.00;15.75
78512;PMS5003;67809;55.034;73.462;2023-02-28T01:31:16;33.00;26.00;16.00
78512;PMS5003;67809;55.034;73.462;2023-02-28T01:33:42;27.50;22.25;14.50
78512;PMS5003;67809;55.034;73.462;2023-02-28T01:36:12;30.00;23.00;14.50
78512;PMS5003;67809;55.034;73.462;2023-02-28T01:38:38;29.00;23.00;14.00
78512;PMS5003;67809;55.034;73.462;2023-02-28T01:41:05;24.00;20.00;11.50
78512;PMS5003;67809;55.034;73.462;2023-02-28T01:43:52;32.00;25.33;16.33
78512;PMS5003;67809;55.034;73.462;2023-02-28T01:46:19;25.50;22.00;13.00
78512;PMS5003;67809;55.034;73.462;2023-02-28T01:49:01;30.00;22.75;14.00
78512;PMS5003;67809;55.034;73.462;2023-02-28T01:51:35;31.00;23.00;14.00
78512;PMS5003;67809;55.034;73.462;2023-02-28T01:54:09;29.50;22.00;14.00
78512;PMS5003;67809;55.034;73.462;2023-02-28T01:56:48;31.25;24.00;13.75
78512;PMS5003;67809;55.034;73.462;2023-02-28T01:59:25;28.25;19.00;12.00
78512;PMS5003;67809;55.034;73.462;2023-02-28T02:01:53;27.00;23.00;15.00
78512;PMS5003;67809;55.034;73.462;2023-02-28T02:04:25;27.00;22.25;15.00
78512;PMS5003;67809;55.034;73.462;2023-02-28T02:06:52;29.00;23.00;14.75
78512;PMS5003;67809;55.034;73.462;2023-02-28T02:09:23;30.75;24.50;14.75
78512;PMS5003;67809;55.034;73.462;2023-02-28T02:12:05;32.67;25.00;16.33
78512;PMS5003;67809;55.034;73.462;2023-02-28T02:17:46;25.75;21.25;12.25
78512;PMS5003;67809;55.034;73.462;2023-02-28T02:23:01;28.00;21.00;12.00
78512;PMS5003;67809;55.034;73.462;2023-02-28T02:25:45;27.25;23.00;13.00
78512;PMS5003;67809;55.034;73.462;2023-02-28T02:36:18;23.75;19.00;11.00
78512;PMS5003;67809;55.034;73.462;2023-02-28T02:38:52;27.25;22.75;13.75
78512;PMS5003;67809;55.034;73.462;2023-02-28T02:41:36;24.25;20.25;11.50
78512;PMS5003;67809;55.034;73.462;2023-02-28T02:44:19;26.67;21.67;12.67
78512;PMS5003;67809;55.034;73.462;2023-02-28T02:46:47;23.25;18.50;12.50
78512;PMS5003;67809;55.034;73.462;2023-02-28T02:49:28;24.00;19.75;12.00
78512;PMS5003;67809;55.034;73.462;2023-02-28T02:51:56;28.00;21.75;12.75
78512;PMS5003;67809;55.034;73.462;2023-02-28T02:54:31;23.00;18.00;11.00
78512;PMS5003;67809;55.034;73.462;2023-02-28T02:57:00;23.50;18.00;11.25
78512;PMS5003;67809;55.034;73.462;2023-02-28T02:59:29;30.00;23.00;13.00
78512;PMS5003;67809;55.034;73.462;2023-02-28T03:02:07;21.00;17.00;10.00
78512;PMS5003;67809;55.034;73.462;2023-02-28T03:04:54;26.00;21.00;13.00
78512;PMS5003;67809;55.034;73.462;2023-02-28T03:07:26;30.00;23.00;13.00
78512;PMS5003;67809;55.034;73.462;2023-02-28T03:09:53;28.00;22.00;12.00
78512;PMS5003;67809;55.034;73.462;2023-02-28T03:12:35;22.50;18.00;10.50
78512;PMS5003;67809;55.034;73.462;2023-02-28T03:15:36;24.00;20.00;11.00
78512;PMS5003;67809;55.034;73.462;2023-02-28T03:18:21;25.75;19.00;11.25
78512;PMS5003;67809;55.034;73.462;2023-02-28T03:20:59;27.00;22.00;13.00
78512;PMS5003;67809;55.034;73.462;2023-02-28T03:23:45;26.00;21.00;11.00
78512;PMS5003;67809;55.034;73.462;2023-02-28T03:26:17;25.00;19.00;12.00
78512;PMS5003;67809;55.034;73.462;2023-02-28T03:31:37;32.00;24.00;14.25
78512;PMS5003;67809;55.034;73.462;2023-02-28T03:34:17;27.50;21.25;13.00
78512;PMS5003;67809;55.034;73.462;2023-02-28T03:36:46;24.25;18.00;11.50
78512;PMS5003;67809;55.034;73.462;2023-02-28T03:39:34;29.25;23.00;14.00
78512;PMS5003;67809;55.034;73.462;2023-02-28T03:42:06;25.00;19.25;12.25
78512;PMS5003;67809;55.034;73.462;2023-02-28T03:47:09;20.50;17.50;11.50
78512;PMS5003;67809;55.034;73.462;2023-02-28T03:49:40;18.50;15.00;9.00
78512;PMS5003;67809;55.034;73.462;2023-02-28T03:52:17;21.00;16.00;10.00
78512;PMS5003;67809;55.034;73.462;2023-02-28T03:54:45;29.00;22.00;13.33
78512;PMS5003;67809;55.034;73.462;2023-02-28T03:59:57;28.00;22.00;13.00
78512;PMS5003;67809;55.034;73.462;2023-02-28T04:02:35;22.67;17.33;10.67
78512;PMS5003;67809;55.034;73.462;2023-02-28T04:05:01;27.50;21.50;12.75
78512;PMS5003;67809;55.034;73.462;2023-02-28T04:07:30;23.25;17.25;10.25
78512;PMS5003;67809;55.034;73.462;2023-02-28T04:09:56;22.00;18.00;11.00
78512;PMS5003;67809;55.034;73.462;2023-02-28T04:12:22;26.00;20.00;12.75
78512;PMS5003;67809;55.034;73.462;2023-02-28T04:14:49;28.33;22.00;12.67
78512;PMS5003;67809;55.034;73.462;2023-02-28T04:17:15;28.00;22.00;13.00
78512;PMS5003;67809;55.034;73.462;2023-02-28T04:19:46;24.25;18.50;11.00
78512;PMS5003;67809;55.034;73.462;2023-02-28T04:22:13;24.25;19.00;13.75
78512;PMS5003;67809;55.034;73.462;2023-02-28T04:24:47;26.00;20.00;11.00
78512;PMS5003;67809;55.034;73.462;2023-02-28T04:27:22;23.00;19.00;13.00
78512;PMS5003;67809;55.034;73.462;2023-02-28T04:29:48;30.00;21.50;14.00
78512;PMS5003;67809;55.034;73.462;2023-02-28T04:32:14;26.25;21.00;14.00
78512;PMS5003;67809;55.034;73.462;2023-02-28T04:34:40;24.50;20.75;14.00
78512;PMS5003;67809;55.034;73.462;2023-02-28T04:37:11;25.00;18.75;11.75
78512;PMS5003;67809;55.034;73.462;2023-02-28T04:39:37;33.25;23.00;13.00
78512;PMS5003;67809;55.034;73.462;2023-02-28T04:42:14;24.00;19.00;11.00
78512;PMS5003;67809;55.034;73.462;2023-02-28T04:44:40;28.25;21.00;14.00
78512;PMS5003;67809;55.034;73.462;2023-02-28T04:47:17;24.00;18.00;11.25
78512;PMS5003;67809;55.034;73.462;2023-02-28T04:49:43;26.00;19.00;12.00
78512;PMS5003;67809;55.034;73.462;2023-02-28T04:52:09;24.75;19.25;12.25
78512;PMS5003;67809;55.034;73.462;2023-02-28T04:54:36;24.75;18.00;10.00
78512;PMS5003;67809;55.034;73.462;2023-02-28T04:57:04;26.50;20.75;11.25
78512;PMS5003;67809;55.034;73.462;2023-02-28T04:59:40;23.50;18.50;10.25
78512;PMS5003;67809;55.034;73.462;2023-02-28T05:02:06;29.50;21.75;13.00
78512;PMS5003;67809;55.034;73.462;2023-02-28T05:04:33;28.00;21.00;12.50
78512;PMS5003;67809;55.034;73.462;2023-02-28T05:07:00;24.75;19.00;11.50
78512;PMS5003;67809;55.034;73.462;2023-02-28T05:09:26;24.25;18.25;11.75
78512;PMS5003;67809;55.034;73.462;2023-02-28T05:12:02;27.50;19.75;11.50
78512;PMS5003;67809;55.034;73.462;2023-02-28T05:14:28;18.67;14.67;8.67
78512;PMS5003;67809;55.034;73.462;2023-02-28T05:16:55;23.00;18.00;10.00
78512;PMS5003;67809;55.034;73.462;2023-02-28T05:19:21;26.75;21.00;13.00
78512;PMS5003;67809;55.034;73.462;2023-02-28T05:21:54;27.00;19.00;11.75
78512;PMS5003;67809;55.034;73.462;2023-02-28T05:24:20;20.00;17.00;11.00
78512;PMS5003;67809;55.034;73.462;2023-02-28T05:26:48;21.50;17.25;10.00
78512;PMS5003;67809;55.034;73.462;2023-02-28T05:29:14;23.00;17.00;10.00
78512;PMS5003;67809;55.034;73.462;2023-02-28T05:31:40;20.50;17.00;10.25
78512;PMS5003;67809;55.034;73.462;2023-02-28T05:34:16;19.75;16.00;10.00
78512;PMS5003;67809;55.034;73.462;2023-02-28T05:36:43;25.00;19.00;12.00
78512;PMS5003;67809;55.034;73.462;2023-02-28T05:39:09;21.25;18.00;12.00
78512;PMS5003;67809;55.034;73.462;2023-02-28T05:41:48;21.50;17.00;11.00
78512;PMS5003;67809;55.034;73.462;2023-02-28T05:44:14;19.67;15.33;9.33
78512;PMS5003;67809;55.034;73.462;2023-02-28T05:46:40;24.50;20.00;13.00
78512;PMS5003;67809;55.034;73.462;2023-02-28T05:49:06;25.00;19.25;12.00
78512;PMS5003;67809;55.034;73.462;2023-02-28T05:51:32;22.75;17.25;9.25
78512;PMS5003;67809;55.034;73.462;2023-02-28T05:54:09;20.75;17.00;11.00
78512;PMS5003;67809;55.034;73.462;2023-02-28T05:56:35;18.25;14.50;10.00
78512;PMS5003;67809;55.034;73.462;2023-02-28T05:59:04;23.00;18.00;11.00
78512;PMS5003;67809;55.034;73.462;2023-02-28T06:01:34;17.25;13.25;8.00
78512;PMS5003;67809;55.034;73.462;2023-02-28T06:04:01;26.00;18.75;12.00
78512;PMS5003;67809;55.034;73.462;2023-02-28T06:06:28;22.75;18.25;11.75
78512;PMS5003;67809;55.034;73.462;2023-02-28T06:08:59;22.75;17.50;10.75
78512;PMS5003;67809;55.034;73.462;2023-02-28T06:11:26;20.00;16.25;10.00
78512;PMS5003;67809;55.034;73.462;2023-02-28T06:13:53;24.00;19.00;12.00
78512;PMS5003;67809;55.034;73.462;2023-02-28T06:16:29;19.50;16.00;10.00
78512;PMS5003;67809;55.034;73.462;2023-02-28T06:18:59;24.25;18.50;11.00
78512;PMS5003;67809;55.034;73.462;2023-02-28T06:21:25;23.00;17.50;10.00
78512;PMS5003;67809;55.034;73.462;2023-02-28T06:23:58;21.00;18.00;12.00
78512;PMS5003;67809;55.034;73.462;2023-02-28T06:26:24;25.00;19.00;10.75
78512;PMS5003;67809;55.034;73.462;2023-02-28T06:28:50;23.75;19.00;10.75
78512;PMS5003;67809;55.034;73.462;2023-02-28T06:31:17;27.00;19.25;11.50
78512;PMS5003;67809;55.034;73.462;2023-02-28T06:33:48;25.00;20.00;12.00
78512;PMS5003;67809;55.034;73.462;2023-02-28T06:36:19;25.00;18.00;12.00
78512;PMS5003;67809;55.034;73.462;2023-02-28T06:38:45;24.50;18.75;12.00
78512;PMS5003;67809;55.034;73.462;2023-02-28T06:41:13;22.25;17.00;10.25
78512;PMS5003;67809;55.034;73.462;2023-02-28T06:43:49;29.00;24.00;14.00
78512;PMS5003;67809;55.034;73.462;2023-02-28T06:46:16;29.00;22.75;13.00
78512;PMS5003;67809;55.034;73.462;2023-02-28T06:48:45;23.75;19.00;11.50
78512;PMS5003;67809;55.034;73.462;2023-02-28T06:51:12;27.75;20.75;12.50
78512;PMS5003;67809;55.034;73.462;2023-02-28T06:53:39;26.00;20.75;12.75
78512;PMS5003;67809;55.034;73.462;2023-02-28T06:56:12;27.50;22.25;15.00
78512;PMS5003;67809;55.034;73.462;2023-02-28T06:58:49;31.00;23.75;14.00
78512;PMS5003;67809;55.034;73.462;2023-02-28T07:01:16;24.50;19.50;12.00
78512;PMS5003;67809;55.034;73.462;2023-02-28T07:03:43;28.25;22.00;14.00
78512;PMS5003;67809;55.034;73.462;2023-02-28T07:06:09;29.00;23.00;15.00
78512;PMS5003;67809;55.034;73.462;2023-02-28T07:08:35;26.75;22.25;13.00
78512;PMS5003;67809;55.034;73.462;2023-02-28T07:11:01;27.25;22.00;13.00
78512;PMS5003;67809;55.034;73.462;2023-02-28T07:13:32;28.00;22.50;13.00
78512;PMS5003;67809;55.034;73.462;2023-02-28T07:16:00;27.00;20.50;13.00
78512;PMS5003;67809;55.034;73.462;2023-02-28T07:18:26;27.50;21.75;13.00
78512;PMS5003;67809;55.034;73.462;2023-02-28T07:20:53;33.00;24.25;14.00
78512;PMS5003;67809;55.034;73.462;2023-02-28T07:23:19;29.00;23.00;14.00
78512;PMS5003;67809;55.034;73.462;2023-02-28T07:25:50;30.00;22.00;13.50
78512;PMS5003;67809;55.034;73.462;2023-02-28T07:28:16;30.00;23.50;15.00
78512;PMS5003;67809;55.034;73.462;2023-02-28T07:30:52;33.75;25.75;15.25
78512;PMS5003;67809;55.034;73.462;2023-02-28T07:33:18;28.25;24.00;16.00
78512;PMS5003;67809;55.034;73.462;2023-02-28T07:35:44;32.33;25.00;15.00
78512;PMS5003;67809;55.034;73.462;2023-02-28T07:38:11;26.00;21.00;14.00
78512;PMS5003;67809;55.034;73.462;2023-02-28T07:40:39;22.75;18.50;10.50
78512;PMS5003;67809;55.034;73.462;2023-02-28T07:43:05;24.75;19.25;11.00
78512;PMS5003;67809;55.034;73.462;2023-02-28T07:45:31;26.25;22.00;14.00
78512;PMS5003;67809;55.034;73.462;2023-02-28T07:48:00;25.00;20.00;13.00
78512;PMS5003;67809;55.034;73.462;2023-02-28T07:50:26;29.00;22.00;14.00
78512;PMS5003;67809;55.034;73.462;2023-02-28T07:52:57;23.25;20.00;13.00
78512;PMS5003;67809;55.034;73.462;2023-02-28T07:55:23;23.33;19.00;12.67
78512;PMS5003;67809;55.034;73.462;2023-02-28T07:57:49;28.25;22.25;13.00
78512;PMS5003;67809;55.034;73.462;2023-02-28T08:00:20;30.00;23.50;14.25
78512;PMS5003;67809;55.034;73.462;2023-02-28T08:02:47;33.75;27.00;18.00
78512;PMS5003;67809;55.034;73.462;2023-02-28T08:05:18;28.67;22.33;13.00
78512;PMS5003;67809;55.034;73.462;2023-02-28T08:07:44;27.00;21.25;13.00
78512;PMS5003;67809;55.034;73.462;2023-02-28T08:10:15;31.50;23.25;14.50
78512;PMS5003;67809;55.034;73.462;2023-02-28T08:12:41;34.25;25.00;15.25
78512;PMS5003;67809;55.034;73.462;2023-02-28T08:15:07;27.00;21.75;14.00
78512;PMS5003;67809;55.034;73.462;2023-02-28T08:17:33;31.75;23.75;14.50
78512;PMS5003;67809;55.034;73.462;2023-02-28T08:19:59;33.00;25.25;16.00
78512;PMS5003;67809;55.034;73.462;2023-02-28T08:22:35;29.75;23.25;14.00
78512;PMS5003;67809;55.034;73.462;2023-02-28T08:25:01;29.00;23.00;14.00
78512;PMS5003;67809;55.034;73.462;2023-02-28T08:27:27;34.00;26.00;15.00
78512;PMS5003;67809;55.034;73.462;2023-02-28T08:29:53;28.50;23.50;13.00
78512;PMS5003;67809;55.034;73.462;2023-02-28T08:32:19;36.75;26.50;16.00
78512;PMS5003;67809;55.034;73.462;2023-02-28T08:34:45;38.00;27.75;16.00
78512;PMS5003;67809;55.034;73.462;2023-02-28T08:37:11;36.00;26.00;17.00
78512;PMS5003;67809;55.034;73.462;2023-02-28T08:39:37;27.25;21.25;12.50
78512;PMS5003;67809;55.034;73.462;2023-02-28T08:42:03;27.50;22.00;13.00
78512;PMS5003;67809;55.034;73.462;2023-02-28T08:44:40;32.25;24.25;14.50
78512;PMS5003;67809;55.034;73.462;2023-02-28T08:47:11;32.33;24.00;13.67
78512;PMS5003;67809;55.034;73.462;2023-02-28T08:49:37;36.00;26.00;15.00
78512;PMS5003;67809;55.034;73.462;2023-02-28T08:52:04;33.50;26.00;15.00
78512;PMS5003;67809;55.034;73.462;2023-02-28T08:54:30;33.00;27.00;17.00
78512;PMS5003;67809;55.034;73.462;2023-02-28T08:56:57;31.67;25.00;16.00
78512;PMS5003;67809;55.034;73.462;2023-02-28T08:59:23;29.75;24.00;15.25
78512;PMS5003;67809;55.034;73.462;2023-02-28T09:01:49;38.00;27.00;15.00
78512;PMS5003;67809;55.034;73.462;2023-02-28T09:04:20;34.00;25.00;14.75
78512;PMS5003;67809;55.034;73.462;2023-02-28T09:06:46;36.00;27.00;16.00
78512;PMS5003;67809;55.034;73.462;2023-02-28T09:09:14;35.50;26.25;17.00
78512;PMS5003;67809;55.034;73.462;2023-02-28T09:11:41;31.50;25.00;15.00
78512;PMS5003;67809;55.034;73.462;2023-02-28T09:14:07;29.00;20.00;12.75
78512;PMS5003;67809;55.034;73.462;2023-02-28T09:16:33;33.67;24.00;14.00
78512;PMS5003;67809;55.034;73.462;2023-02-28T09:18:59;33.00;24.00;13.00
78512;PMS5003;67809;55.034;73.462;2023-02-28T09:21:26;27.00;21.00;13.00
78512;PMS5003;67809;55.034;73.462;2023-02-28T09:24:02;33.00;25.00;15.00
78512;PMS5003;67809;55.034;73.462;2023-02-28T09:26:28;29.00;22.33;14.33
78512;PMS5003;67809;55.034;73.462;2023-02-28T09:28:54;31.50;24.50;15.50
78512;PMS5003;67809;55.034;73.462;2023-02-28T09:31:22;36.75;27.00;17.00
78512;PMS5003;67809;55.034;73.462;2023-02-28T09:33:49;33.75;25.75;15.50
78512;PMS5003;67809;55.034;73.462;2023-02-28T09:36:25;32.00;25.00;16.00
78512;PMS5003;67809;55.034;73.462;2023-02-28T09:38:58;36.25;28.00;17.25
78512;PMS5003;67809;55.034;73.462;2023-02-28T09:41:25;36.75;27.75;17.00
78512;PMS5003;67809;55.034;73.462;2023-02-28T09:43:56;35.75;27.50;18.00
78512;PMS5003;67809;55.034;73.462;2023-02-28T09:49:05;33.00;26.00;15.75
78512;PMS5003;67809;55.034;73.462;2023-02-28T09:54:22;34.00;26.50;17.00
78512;PMS5003;67809;55.034;73.462;2023-02-28T09:56:58;34.50;27.00;17.50
78512;PMS5003;67809;55.034;73.462;2023-02-28T10:07:17;33.00;26.00;16.00
78512;PMS5003;67809;55.034;73.462;2023-02-28T10:09:55;31.00;23.75;14.00
78512;PMS5003;67809;55.034;73.462;2023-02-28T10:12:29;35.00;27.00;17.00
78512;PMS5003;67809;55.034;73.462;2023-02-28T10:14:55;38.00;29.00;18.00
78512;PMS5003;67809;55.034;73.462;2023-02-28T10:17:25;38.00;28.00;17.00
78512;PMS5003;67809;55.034;73.462;2023-02-28T10:24:53;37.75;28.00;17.00
78512;PMS5003;67809;55.034;73.462;2023-02-28T10:27:28;32.00;25.00;14.00
78512;PMS5003;67809;55.034;73.462;2023-02-28T10:29:59;33.75;27.00;16.00
78512;PMS5003;67809;55.034;73.462;2023-02-28T10:37:29;34.50;27.00;16.75
78512;PMS5003;67809;55.034;73.462;2023-02-28T10:39:57;37.00;26.25;16.00
78512;PMS5003;67809;55.034;73.462;2023-02-28T10:42:24;31.00;25.75;16.00
78512;PMS5003;67809;55.034;73.462;2023-02-28T10:45:11;33.75;26.00;15.00
78512;PMS5003;67809;55.034;73.462;2023-02-28T10:47:42;29.75;22.75;15.50
78512;PMS5003;67809;55.034;73.462;2023-02-28T10:55:58;38.00;29.00;18.00
78512;PMS5003;67809;55.034;73.462;2023-02-28T10:58:27;31.00;26.00;17.75
78512;PMS5003;67809;55.034;73.462;2023-02-28T11:00:54;36.00;28.00;19.00
78512;PMS5003;67809;55.034;73.462;2023-02-28T11:03:34;31.00;24.50;16.00
78512;PMS5003;67809;55.034;73.462;2023-02-28T11:06:07;33.50;26.75;17.00
78512;PMS5003;67809;55.034;73.462;2023-02-28T11:08:34;34.00;27.00;16.00
78512;PMS5003;67809;55.034;73.462;2023-02-28T11:11:09;36.00;27.00;17.00
78512;PMS5003;67809;55.034;73.462;2023-02-28T11:13:35;35.00;27.00;17.00
78512;PMS5003;67809;55.034;73.462;2023-02-28T11:16:09;35.75;27.25;16.25
78512;PMS5003;67809;55.034;73.462;2023-02-28T11:18:49;35.00;28.00;18.00
78512;PMS5003;67809;55.034;73.462;2023-02-28T11:21:23;34.25;27.00;16.00
78512;PMS5003;67809;55.034;73.462;2023-02-28T11:24:00;37.75;28.00;18.00
78512;PMS5003;67809;55.034;73.462;2023-02-28T11:26:41;38.00;28.75;19.00
78512;PMS5003;67809;55.034;73.462;2023-02-28T11:29:19;35.00;26.00;16.67
78512;PMS5003;67809;55.034;73.462;2023-02-28T11:32:05;39.00;28.50;17.00
78512;PMS5003;67809;55.034;73.462;2023-02-28T11:34:34;37.00;29.00;17.75
78512;PMS5003;67809;55.034;73.462;2023-02-28T11:37:03;33.50;26.00;15.50
78512;PMS5003;67809;55.034;73.462;2023-02-28T11:39:41;33.50;25.50;16.00
78512;PMS5003;67809;55.034;73.462;2023-02-28T11:45:22;31.25;25.00;16.00
78512;PMS5003;67809;55.034;73.462;2023-02-28T11:47:56;33.67;25.33;15.00
78512;PMS5003;67809;55.034;73.462;2023-02-28T11:53:17;34.50;27.00;17.00
78512;PMS5003;67809;55.034;73.462;2023-02-28T11:55:52;36.00;28.50;18.00
78512;PMS5003;67809;55.034;73.462;2023-02-28T11:58:32;41.25;31.00;19.25
78512;PMS5003;67809;55.034;73.462;2023-02-28T12:01:09;37.75;29.00;17.00
78512;PMS5003;67809;55.034;73.462;2023-02-28T12:27:00;36.00;28.00;17.00
78512;PMS5003;67809;55.034;73.462;2023-02-28T12:29:29;36.00;27.00;16.33
78512;PMS5003;67809;55.034;73.462;2023-02-28T12:32:12;32.50;24.75;15.75
78512;PMS5003;67809;55.034;73.462;2023-02-28T12:34:47;32.75;26.00;17.00
78512;PMS5003;67809;55.034;73.462;2023-02-28T12:37:17;29.25;24.00;14.00
78512;PMS5003;67809;55.034;73.462;2023-02-28T12:39:44;28.00;22.33;13.00
78512;PMS5003;67809;55.034;73.462;2023-02-28T12:42:12;31.00;25.00;14.00
78512;PMS5003;67809;55.034;73.462;2023-02-28T12:44:47;31.50;23.75;14.50
78512;PMS5003;67809;55.034;73.462;2023-02-28T12:47:16;27.00;21.00;13.00
78512;PMS5003;67809;55.034;73.462;2023-02-28T12:49:49;29.00;22.67;14.00
78512;PMS5003;67809;55.034;73.462;2023-02-28T12:52:31;34.50;26.00;16.00
78512;PMS5003;67809;55.034;73.462;2023-02-28T12:57:59;31.00;25.00;16.00
78512;PMS5003;67809;55.034;73.462;2023-02-28T13:00:29;31.67;23.00;14.00
78512;PMS5003;67809;55.034;73.462;2023-02-28T13:11:07;31.00;24.00;15.00
78512;PMS5003;67809;55.034;73.462;2023-02-28T13:13:33;33.25;24.25;14.75
78512;PMS5003;67809;55.034;73.462;2023-02-28T13:16:06;28.00;22.00;14.50
78512;PMS5003;67809;55.034;73.462;2023-02-28T13:18:39;28.00;23.00;14.00
78512;PMS5003;67809;55.034;73.462;2023-02-28T13:21:06;28.00;20.00;13.00
78512;PMS5003;67809;55.034;73.462;2023-02-28T13:23:37;27.00;22.00;13.50
78512;PMS5003;67809;55.034;73.462;2023-02-28T13:26:09;30.00;23.00;14.00
78512;PMS5003;67809;55.034;73.462;2023-02-28T13:31:28;32.00;25.00;15.50
78512;PMS5003;67809;55.034;73.462;2023-02-28T13:36:27;36.00;26.00;16.00
78512;PMS5003;67809;55.034;73.462;2023-02-28T13:38:59;28.00;23.00;14.00
78512;PMS5003;67809;55.034;73.462;2023-02-28T13:46:35;30.50;24.50;14.75
78512;PMS5003;67809;55.034;73.462;2023-02-28T13:49:20;30.67;24.00;15.00
78512;PMS5003;67809;55.034;73.462;2023-02-28T14:02:59;31.00;25.00;15.00
78512;PMS5003;67809;55.034;73.462;2023-02-28T14:05:27;36.75;25.75;16.00
78512;PMS5003;67809;55.034;73.462;2023-02-28T14:08:04;31.00;25.00;15.00
78512;PMS5003;67809;55.034;73.462;2023-02-28T14:10:37;33.00;25.00;14.00
78512;PMS5003;67809;55.034;73.462;2023-02-28T14:13:13;29.50;22.75;14.50
78512;PMS5003;67809;55.034;73.462;2023-02-28T14:15:41;32.00;24.75;16.00
78512;PMS5003;67809;55.034;73.462;2023-02-28T14:18:21;33.00;26.00;16.00
78512;PMS5003;67809;55.034;73.462;2023-02-28T14:20:54;33.67;26.00;16.00
78512;PMS5003;67809;55.034;73.462;2023-02-28T14:23:34;32.00;25.00;15.00
78512;PMS5003;67809;55.034;73.462;2023-02-28T14:28:59;34.00;26.00;17.00
78512;PMS5003;67809;55.034;73.462;2023-02-28T14:31:45;32.33;25.33;17.00
78512;PMS5003;67809;55.034;73.462;2023-02-28T14:34:37;35.00;26.50;15.75
78512;PMS5003;67809;55.034;73.462;2023-02-28T14:37:05;33.00;26.00;17.00
78512;PMS5003;67809;55.034;73.462;2023-02-28T14:39:35;34.75;27.00;17.00
78512;PMS5003;67809;55.034;73.462;2023-02-28T14:42:02;34.00;26.00;16.00
78512;PMS5003;67809;55.034;73.462;2023-02-28T14:44:30;28.25;23.00;14.00
78512;PMS5003;67809;55.034;73.462;2023-02-28T14:46:58;34.50;26.50;17.00
78512;PMS5003;67809;55.034;73.462;2023-02-28T14:49:35;36.50;28.50;18.50
78512;PMS5003;67809;55.034;73.462;2023-02-28T14:52:18;37.00;29.00;19.00
78512;PMS5003;67809;55.034;73.462;2023-02-28T14:54:57;33.00;26.00;16.00
78512;PMS5003;67809;55.034;73.462;2023-02-28T14:57:25;35.75;26.50;16.00
78512;PMS5003;67809;55.034;73.462;2023-02-28T15:00:21;35.25;26.75;17.00
78512;PMS5003;67809;55.034;73.462;2023-02-28T15:02:47;35.00;26.00;16.00
78512;PMS5003;67809;55.034;73.462;2023-02-28T15:07:46;39.00;29.00;17.50
78512;PMS5003;67809;55.034;73.462;2023-02-28T15:10:19;34.25;25.25;16.25
78512;PMS5003;67809;55.034;73.462;2023-02-28T15:12:57;34.00;26.00;16.00
78512;PMS5003;67809;55.034;73.462;2023-02-28T15:15:25;37.00;27.25;16.50
78512;PMS5003;67809;55.034;73.462;2023-02-28T15:17:53;33.00;25.75;15.25
78512;PMS5003;67809;55.034;73.462;2023-02-28T15:20:20;37.50;27.50;16.00
78512;PMS5003;67809;55.034;73.462;2023-02-28T15:22:47;35.50;27.75;17.50
78512;PMS5003;67809;55.034;73.462;2023-02-28T15:25:15;34.75;26.75;15.75
78512;PMS5003;67809;55.034;73.462;2023-02-28T15:27:45;35.00;27.75;16.25
78512;PMS5003;67809;55.034;73.462;2023-02-28T15:30:23;33.50;26.00;17.00
78512;PMS5003;67809;55.034;73.462;2023-02-28T15:35:37;32.00;25.00;15.75
78512;PMS5003;67809;55.034;73.462;2023-02-28T15:38:13;39.75;30.75;17.00
78512;PMS5003;67809;55.034;73.462;2023-02-28T15:40:42;39.00;29.00;18.00
78512;PMS5003;67809;55.034;73.462;2023-02-28T15:45:41;37.25;29.00;17.00
78512;PMS5003;67809;55.034;73.462;2023-02-28T15:48:15;38.00;27.25;16.00
78512;PMS5003;67809;55.034;73.462;2023-02-28T15:50:42;35.25;26.00;16.00
78512;PMS5003;67809;55.034;73.462;2023-02-28T15:53:19;36.50;28.00;18.00
78512;PMS5003;67809;55.034;73.462;2023-02-28T15:55:51;40.00;29.50;18.00
78512;PMS5003;67809;55.034;73.462;2023-02-28T15:58:19;32.00;25.00;16.25